Tuscarora, New York
Current Conditions -  °F | °C
As of 10:54 AM on Monday 22 Dec 2014 (Local Time) from KDSV Reporting Station
Clear Clear  
Wind Chill: 26°   Ceiling: Unl
Heat Index: 33°   Visibility: 10mi
Dew Point: 23°   Wind: 8mph
Humidity: 66%   Direction: 160°SSE
Pressure: 30.2"   Gusts: NA
Location:  42.6879°N, 77.8772°W
Report Text: KDSV 221554Z AUTO 16007KT 10SM CLR 01/M05 A3020 RMK AO2 SLP243 T00061050
Loading
Personal Weather Stations






























Interactive Weather Map New forecast layout! Learn more

10-Day Weather Forecast

Advertisements
Track Severe Weather on mobile